Time;durP1;ratioP1;P1;durP2;ratioP2;P2;SDS_P1;SDS_P2;PMS_P1;PMS_P2;Temp;Humidity;BMP_temperature;BMP_pressure;BME280_temperature;BME280_humidity;BME280_pressure;Samples;Min_cycle;Max_cycle;Signal;HPM_P1;HPM_P2
2022/05/01 00:00:26;;;;;;;6.63;4.97;;;;;;;;;;7400938;19;20014;-80
2022/05/01 00:02:51;;;;;;;7.65;5.15;;;;;;;;;;7401785;19;20060;-81
2022/05/01 00:05:16;;;;;;;5.95;4.28;;;;;;;;;;7399322;19;20451;-81
2022/05/01 00:07:42;;;;;;;6.47;4.85;;;;;;;;;;7400784;19;20023;-81
2022/05/01 00:10:09;;;;;;;6.55;5.20;;;;;;;;;;7401626;19;20010;-81
2022/05/01 00:12:35;;;;;;;7.43;5.10;;;;;;;;;;7401617;19;20160;-82
2022/05/01 00:15:01;;;;;;;7.30;4.70;;;;;;;;;;7399871;19;20510;-82
2022/05/01 00:17:26;;;;;;;7.10;4.90;;;;;;;;;;7400933;19;20011;-82
2022/05/01 00:19:52;;;;;;;7.50;5.43;;;;;;;;;;7404517;19;20459;-82
2022/05/01 00:22:17;;;;;;;7.07;4.80;;;;;;;;;;7420444;19;19987;-80
2022/05/01 00:24:42;;;;;;;8.82;5.57;;;;;;;;;;7425975;19;19999;-80
2022/05/01 00:27:08;;;;;;;8.07;5.75;;;;;;;;;;7426547;19;20017;-80
2022/05/01 00:29:33;;;;;;;8.23;5.45;;;;;;;;;;7425456;19;20035;-81
2022/05/01 00:31:59;;;;;;;6.30;4.65;;;;;;;;;;7417951;19;20495;-81
2022/05/01 00:37:08;;;;;;;5.97;4.78;;;;;;;;;;7396429;19;20078;-81
2022/05/01 00:39:33;;;;;;;7.65;5.13;;;;;;;;;;7399919;19;20050;-81
2022/05/01 00:41:59;;;;;;;6.75;5.07;;;;;;;;;;7398717;19;20018;-81
2022/05/01 00:44:25;;;;;;;8.35;4.85;;;;;;;;;;7397447;19;20010;-81
2022/05/01 00:46:53;;;;;;;6.85;5.55;;;;;;;;;;7397267;19;19998;-81
2022/05/01 00:49:23;;;;;;;6.93;5.05;;;;;;;;;;7395209;19;20010;-81
2022/05/01 00:52:09;;;;;;;6.93;5.55;;;;;;;;;;7394840;19;20573;-81
2022/05/01 00:54:37;;;;;;;7.60;5.30;;;;;;;;;;7396171;19;20015;-81
2022/05/01 00:57:05;;;;;;;6.35;5.20;;;;;;;;;;7395534;19;20046;-81
2022/05/01 00:59:32;;;;;;;7.53;5.35;;;;;;;;;;7396710;19;20340;-81
2022/05/01 01:01:57;;;;;;;9.85;5.75;;;;;;;;;;7397629;19;20091;-81
2022/05/01 01:04:23;;;;;;;8.52;5.65;;;;;;;;;;7396495;19;20069;-81
2022/05/01 01:06:48;;;;;;;8.45;6.38;;;;;;;;;;7395402;19;20038;-81
2022/05/01 01:09:15;;;;;;;7.22;5.65;;;;;;;;;;7392312;19;20006;-80
2022/05/01 01:11:42;;;;;;;7.63;5.07;;;;;;;;;;7395459;19;20010;-81
2022/05/01 01:14:08;;;;;;;8.55;5.65;;;;;;;;;;7392602;19;20389;-81
2022/05/01 01:16:37;;;;;;;6.95;5.45;;;;;;;;;;7393569;19;20451;-81
2022/05/01 01:19:04;;;;;;;9.30;5.00;;;;;;;;;;7392139;19;20403;-82
2022/05/01 01:21:29;;;;;;;7.32;4.88;;;;;;;;;;7395692;19;20110;-81
2022/05/01 01:23:57;;;;;;;8.38;5.55;;;;;;;;;;7390951;19;20306;-81
2022/05/01 01:26:22;;;;;;;8.75;5.70;;;;;;;;;;7392055;19;20364;-81
2022/05/01 01:28:50;;;;;;;7.53;5.10;;;;;;;;;;7394241;19;20046;-80
2022/05/01 01:34:05;;;;;;;8.45;5.63;;;;;;;;;;7392641;19;20033;-80
2022/05/01 01:36:35;;;;;;;9.30;5.22;;;;;;;;;;7395490;19;20007;-81
2022/05/01 01:39:00;;;;;;;9.93;6.18;;;;;;;;;;7394313;19;20014;-81
2022/05/01 01:41:29;;;;;;;8.98;5.82;;;;;;;;;;7394684;19;20427;-80
2022/05/01 01:43:55;;;;;;;9.93;5.97;;;;;;;;;;7392550;19;20035;-80
2022/05/01 01:46:20;;;;;;;7.75;5.38;;;;;;;;;;7395081;19;20018;-81
2022/05/01 01:48:46;;;;;;;8.05;6.03;;;;;;;;;;7392988;19;20432;-81
2022/05/01 01:51:12;;;;;;;9.65;6.35;;;;;;;;;;7394875;19;20010;-81
2022/05/01 01:53:38;;;;;;;11.30;7.25;;;;;;;;;;7391032;19;20010;-81
2022/05/01 01:56:04;;;;;;;8.90;5.80;;;;;;;;;;7393619;19;20008;-81
2022/05/01 01:58:30;;;;;;;8.48;6.35;;;;;;;;;;7391389;19;20022;-81
2022/05/01 02:00:57;;;;;;;9.32;5.70;;;;;;;;;;7395025;19;20021;-81
2022/05/01 02:03:23;;;;;;;6.88;5.05;;;;;;;;;;7390893;19;20018;-81
2022/05/01 02:05:49;;;;;;;7.80;5.75;;;;;;;;;;7389145;19;20037;-81
2022/05/01 02:08:15;;;;;;;8.43;5.60;;;;;;;;;;7394567;19;20015;-82
2022/05/01 02:10:41;;;;;;;10.75;6.32;;;;;;;;;;7393225;19;20030;-81
2022/05/01 02:13:07;;;;;;;7.05;5.20;;;;;;;;;;7389875;19;20010;-81
2022/05/01 02:15:33;;;;;;;8.48;6.38;;;;;;;;;;7391090;19;20017;-80
2022/05/01 02:18:00;;;;;;;8.93;6.13;;;;;;;;;;7391237;19;20430;-81
2022/05/01 02:20:26;;;;;;;8.85;6.65;;;;;;;;;;7390010;19;20027;-80
2022/05/01 02:22:53;;;;;;;9.77;6.50;;;;;;;;;;7392524;19;20022;-81
2022/05/01 02:25:20;;;;;;;7.70;5.47;;;;;;;;;;7390543;19;20114;-81
2022/05/01 02:27:45;;;;;;;8.65;6.13;;;;;;;;;;7392884;19;20038;-80
2022/05/01 02:30:11;;;;;;;10.73;7.20;;;;;;;;;;7391019;19;20111;-81
2022/05/01 02:32:37;;;;;;;7.22;5.28;;;;;;;;;;7391539;19;20023;-81
2022/05/01 02:35:04;;;;;;;9.65;6.55;;;;;;;;;;7389865;19;20006;-80
2022/05/01 02:37:30;;;;;;;8.23;5.80;;;;;;;;;;7389155;19;20018;-81
2022/05/01 02:39:55;;;;;;;9.35;6.43;;;;;;;;;;7391387;19;20007;-81
2022/05/01 02:42:20;;;;;;;8.45;5.75;;;;;;;;;;7392416;19;20041;-81
2022/05/01 02:44:45;;;;;;;8.52;5.88;;;;;;;;;;7390204;19;20010;-81
2022/05/01 02:47:11;;;;;;;7.93;5.25;;;;;;;;;;7395111;19;20454;-81
2022/05/01 02:49:37;;;;;;;10.68;7.13;;;;;;;;;;7398416;19;20014;-81
2022/05/01 02:52:03;;;;;;;10.40;6.85;;;;;;;;;;7396584;19;20038;-81
2022/05/01 02:54:28;;;;;;;10.93;7.20;;;;;;;;;;7398388;19;20070;-81
2022/05/01 02:56:54;;;;;;;9.93;6.05;;;;;;;;;;7399265;19;20352;-81
2022/05/01 02:59:20;;;;;;;8.93;6.03;;;;;;;;;;7396512;19;20007;-81
2022/05/01 03:01:45;;;;;;;11.93;8.02;;;;;;;;;;7400933;19;20030;-81
2022/05/01 03:04:11;;;;;;;14.63;9.30;;;;;;;;;;7397445;19;20014;-81
2022/05/01 03:06:37;;;;;;;14.95;7.55;;;;;;;;;;7399004;19;20030;-81
2022/05/01 03:09:03;;;;;;;12.73;7.75;;;;;;;;;;7399104;19;20433;-80
2022/05/01 03:11:29;;;;;;;11.82;7.38;;;;;;;;;;7399057;19;20078;-81
2022/05/01 03:13:54;;;;;;;14.32;8.00;;;;;;;;;;7400297;19;20033;-81
2022/05/01 03:16:19;;;;;;;10.35;7.50;;;;;;;;;;7397536;19;20007;-81
2022/05/01 03:24:15;;;;;;;11.15;7.53;;;;;;;;;;7397666;19;20052;-81
2022/05/01 03:26:41;;;;;;;10.75;7.72;;;;;;;;;;7400263;19;20331;-80
2022/05/01 03:29:07;;;;;;;12.88;8.63;;;;;;;;;;7396960;19;20371;-81
2022/05/01 03:31:35;;;;;;;12.50;8.77;;;;;;;;;;7397194;19;20011;-80
2022/05/01 03:34:01;;;;;;;13.10;7.80;;;;;;;;;;7398222;19;20021;-80
2022/05/01 03:36:26;;;;;;;11.80;8.15;;;;;;;;;;7397924;19;20333;-80
2022/05/01 03:38:52;;;;;;;13.55;8.95;;;;;;;;;;7397801;19;20428;-81
2022/05/01 03:41:18;;;;;;;12.75;9.30;;;;;;;;;;7398733;19;20400;-81
2022/05/01 03:43:43;;;;;;;16.52;8.98;;;;;;;;;;7401162;19;20035;-81
2022/05/01 03:46:10;;;;;;;16.70;8.95;;;;;;;;;;7394753;19;20023;-81
2022/05/01 03:48:35;;;;;;;14.82;9.13;;;;;;;;;;7397637;19;20021;-80
2022/05/01 03:51:02;;;;;;;13.23;9.00;;;;;;;;;;7399804;19;20010;-80
2022/05/01 03:53:27;;;;;;;14.75;9.55;;;;;;;;;;7395150;19;20023;-80
2022/05/01 03:55:52;;;;;;;14.93;9.25;;;;;;;;;;7397812;19;20010;-81
2022/05/01 03:58:18;;;;;;;17.02;10.50;;;;;;;;;;7394266;19;20006;-81
2022/05/01 04:00:44;;;;;;;17.90;10.77;;;;;;;;;;7398480;19;20010;-81
2022/05/01 04:03:12;;;;;;;18.55;10.70;;;;;;;;;;7398270;19;20006;-81
2022/05/01 04:05:38;;;;;;;15.45;9.85;;;;;;;;;;7394713;19;20389;-80
2022/05/01 04:08:03;;;;;;;14.48;9.95;;;;;;;;;;7396791;19;20013;-81
2022/05/01 04:10:29;;;;;;;14.65;8.90;;;;;;;;;;7399192;19;20011;-81
2022/05/01 04:12:54;;;;;;;15.98;8.85;;;;;;;;;;7396101;19;20002;-80
2022/05/01 04:15:19;;;;;;;13.32;8.73;;;;;;;;;;7397212;19;20010;-80
2022/05/01 04:17:45;;;;;;;16.83;10.20;;;;;;;;;;7396007;19;20132;-81
2022/05/01 04:20:12;;;;;;;14.13;9.45;;;;;;;;;;7397329;19;20034;-80
2022/05/01 04:22:39;;;;;;;14.93;9.32;;;;;;;;;;7399117;19;20077;-81
2022/05/01 04:25:06;;;;;;;19.02;9.82;;;;;;;;;;7392290;19;20189;-81
2022/05/01 04:27:31;;;;;;;16.95;10.00;;;;;;;;;;7394962;19;20021;-80
2022/05/01 04:29:57;;;;;;;17.15;10.18;;;;;;;;;;7396235;19;20015;-81
2022/05/01 04:32:23;;;;;;;15.07;9.23;;;;;;;;;;7397544;19;20009;-79
2022/05/01 04:34:48;;;;;;;15.32;8.70;;;;;;;;;;7398008;19;20027;-80
2022/05/01 04:37:13;;;;;;;17.63;9.32;;;;;;;;;;7394148;19;20399;-79
2022/05/01 04:39:39;;;;;;;13.98;9.45;;;;;;;;;;7391459;19;20036;-80
2022/05/01 04:42:04;;;;;;;15.95;9.60;;;;;;;;;;7397617;19;20010;-80
2022/05/01 04:44:30;;;;;;;16.77;9.75;;;;;;;;;;7396116;19;20018;-79
2022/05/01 04:46:55;;;;;;;15.48;9.55;;;;;;;;;;7398237;19;20013;-80
2022/05/01 04:49:20;;;;;;;16.38;10.63;;;;;;;;;;7396791;19;20043;-79
2022/05/01 04:51:46;;;;;;;17.65;10.23;;;;;;;;;;7392286;19;20395;-80
2022/05/01 04:54:12;;;;;;;14.35;9.10;;;;;;;;;;7395693;19;20199;-79
2022/05/01 04:59:21;;;;;;;14.43;8.80;;;;;;;;;;7399346;19;20090;-80
2022/05/01 05:01:47;;;;;;;15.23;9.10;;;;;;;;;;7393372;19;20003;-78
2022/05/01 05:04:12;;;;;;;14.27;9.38;;;;;;;;;;7389480;19;20026;-78
2022/05/01 05:06:37;;;;;;;15.13;10.27;;;;;;;;;;7394464;19;20044;-79
2022/05/01 05:11:46;;;;;;;15.60;9.90;;;;;;;;;;7392235;19;20010;-79
2022/05/01 05:14:12;;;;;;;18.48;10.60;;;;;;;;;;7392657;19;20588;-79
2022/05/01 05:16:37;;;;;;;17.38;9.43;;;;;;;;;;7387493;19;20010;-79
2022/05/01 05:19:02;;;;;;;16.15;9.88;;;;;;;;;;7390509;19;20003;-79
2022/05/01 05:21:27;;;;;;;16.05;10.55;;;;;;;;;;7390311;19;20034;-79
2022/05/01 05:23:55;;;;;;;18.33;10.57;;;;;;;;;;7388225;19;20469;-79
2022/05/01 05:26:20;;;;;;;18.15;10.65;;;;;;;;;;7387109;19;20018;-79
2022/05/01 05:28:45;;;;;;;17.52;9.85;;;;;;;;;;7391903;19;20424;-79
2022/05/01 05:31:11;;;;;;;20.10;10.63;;;;;;;;;;7384203;19;20029;-79
2022/05/01 05:33:36;;;;;;;15.38;9.98;;;;;;;;;;7388060;19;20246;-79
2022/05/01 05:36:02;;;;;;;17.73;10.25;;;;;;;;;;7388070;19;20035;-78
2022/05/01 05:38:27;;;;;;;17.02;10.07;;;;;;;;;;7386410;19;20003;-80
2022/05/01 05:40:52;;;;;;;15.98;10.43;;;;;;;;;;7389683;19;20023;-79
2022/05/01 05:43:17;;;;;;;16.48;10.98;;;;;;;;;;7390402;19;20048;-79
2022/05/01 05:45:43;;;;;;;16.52;9.82;;;;;;;;;;7388272;19;20013;-80
2022/05/01 05:48:08;;;;;;;16.88;10.68;;;;;;;;;;7388842;19;20014;-80
2022/05/01 05:50:33;;;;;;;22.88;13.05;;;;;;;;;;7389964;19;20003;-83
2022/05/01 05:52:58;;;;;;;17.98;11.43;;;;;;;;;;7388729;19;20106;-81
2022/05/01 05:55:24;;;;;;;18.80;10.63;;;;;;;;;;7389042;19;20389;-78
2022/05/01 05:57:49;;;;;;;17.80;11.38;;;;;;;;;;7386819;19;20006;-80
2022/05/01 06:00:15;;;;;;;16.33;9.95;;;;;;;;;;7383937;19;20021;-79
2022/05/01 06:02:40;;;;;;;19.20;9.77;;;;;;;;;;7383708;19;20070;-80
2022/05/01 06:05:06;;;;;;;16.13;9.70;;;;;;;;;;7381256;19;20014;-79
2022/05/01 06:07:32;;;;;;;18.02;10.88;;;;;;;;;;7389782;19;20009;-80
2022/05/01 06:09:57;;;;;;;17.33;10.25;;;;;;;;;;7389948;19;20010;-79
2022/05/01 06:12:22;;;;;;;18.65;10.60;;;;;;;;;;7383662;19;20005;-79
2022/05/01 06:14:48;;;;;;;16.85;9.75;;;;;;;;;;7386124;19;20340;-79
2022/05/01 06:17:13;;;;;;;17.92;10.73;;;;;;;;;;7382962;19;20002;-79
2022/05/01 06:19:39;;;;;;;18.95;10.73;;;;;;;;;;7388253;19;20293;-79
2022/05/01 06:22:05;;;;;;;18.88;10.75;;;;;;;;;;7386950;19;19998;-80
2022/05/01 06:24:30;;;;;;;19.30;10.52;;;;;;;;;;7385094;19;20014;-80
2022/05/01 06:26:55;;;;;;;19.92;10.70;;;;;;;;;;7389975;19;20022;-80
2022/05/01 06:29:20;;;;;;;18.00;11.63;;;;;;;;;;7385837;19;20337;-80
2022/05/01 06:31:46;;;;;;;15.02;9.68;;;;;;;;;;7383023;19;20014;-80
2022/05/01 06:34:14;;;;;;;20.55;10.55;;;;;;;;;;7386019;19;20022;-80
2022/05/01 06:36:40;;;;;;;21.20;10.23;;;;;;;;;;7385424;19;19995;-80
2022/05/01 06:39:07;;;;;;;15.60;9.98;;;;;;;;;;7387121;19;20010;-80
2022/05/01 06:41:33;;;;;;;17.55;9.98;;;;;;;;;;7384347;19;20015;-80
2022/05/01 06:43:58;;;;;;;14.32;9.10;;;;;;;;;;7385437;19;20091;-80
2022/05/01 06:46:23;;;;;;;19.45;11.80;;;;;;;;;;7389360;19;20500;-80
2022/05/01 06:48:48;;;;;;;15.80;10.25;;;;;;;;;;7385396;19;19999;-80
2022/05/01 06:51:14;;;;;;;17.65;10.13;;;;;;;;;;7386176;19;20495;-80
2022/05/01 06:53:39;;;;;;;18.90;9.98;;;;;;;;;;7385964;19;20026;-79
2022/05/01 06:56:05;;;;;;;14.50;9.07;;;;;;;;;;7388042;19;20022;-80
2022/05/01 06:58:31;;;;;;;18.88;10.63;;;;;;;;;;7385351;19;20040;-80
2022/05/01 07:00:57;;;;;;;17.75;11.25;;;;;;;;;;7384398;19;20008;-80
2022/05/01 07:03:22;;;;;;;17.73;11.43;;;;;;;;;;7385005;19;20006;-80
2022/05/01 07:05:47;;;;;;;14.98;9.82;;;;;;;;;;7388353;19;20335;-80
2022/05/01 07:08:13;;;;;;;16.88;10.15;;;;;;;;;;7385809;19;20010;-80
2022/05/01 07:10:38;;;;;;;16.05;10.15;;;;;;;;;;7384468;19;20067;-79
2022/05/01 07:13:04;;;;;;;18.02;11.10;;;;;;;;;;7387266;19;20329;-79
2022/05/01 07:15:29;;;;;;;15.50;9.98;;;;;;;;;;7385149;19;20045;-80
2022/05/01 07:17:54;;;;;;;15.90;10.57;;;;;;;;;;7386157;19;20070;-80
2022/05/01 07:20:20;;;;;;;17.58;10.60;;;;;;;;;;7387141;19;20502;-80
2022/05/01 07:22:45;;;;;;;21.20;10.80;;;;;;;;;;7388322;19;20006;-80
2022/05/01 07:25:10;;;;;;;18.60;11.00;;;;;;;;;;7402381;19;20045;-80
2022/05/01 07:27:35;;;;;;;18.10;10.90;;;;;;;;;;7421340;19;20006;-80
2022/05/01 07:30:01;;;;;;;17.58;10.57;;;;;;;;;;7417402;19;20018;-80
2022/05/01 07:32:26;;;;;;;18.40;10.57;;;;;;;;;;7419117;19;19998;-80
2022/05/01 07:34:51;;;;;;;19.38;11.27;;;;;;;;;;7424086;19;19998;-80
2022/05/01 07:37:20;;;;;;;18.88;11.48;;;;;;;;;;7393959;19;20446;-79
2022/05/01 07:39:45;;;;;;;18.05;10.15;;;;;;;;;;7395093;19;20014;-79
2022/05/01 07:42:11;;;;;;;18.55;10.88;;;;;;;;;;7393207;19;20019;-79
2022/05/01 07:44:36;;;;;;;18.15;11.52;;;;;;;;;;7393672;19;20428;-79
2022/05/01 07:47:01;;;;;;;20.25;12.25;;;;;;;;;;7394558;19;20010;-80
2022/05/01 07:49:26;;;;;;;19.80;11.20;;;;;;;;;;7391207;19;20016;-80
2022/05/01 07:51:52;;;;;;;20.27;12.02;;;;;;;;;;7393532;19;20007;-80
2022/05/01 07:54:17;;;;;;;22.00;11.60;;;;;;;;;;7391915;19;20078;-80
2022/05/01 07:56:42;;;;;;;19.23;11.40;;;;;;;;;;7394425;19;19998;-80
2022/05/01 07:59:08;;;;;;;17.30;10.77;;;;;;;;;;7390112;19;19994;-80
2022/05/01 08:01:34;;;;;;;21.83;11.98;;;;;;;;;;7390209;19;20002;-79
2022/05/01 08:06:43;;;;;;;17.67;10.10;;;;;;;;;;7392084;19;20118;-79
2022/05/01 08:09:09;;;;;;;18.15;11.32;;;;;;;;;;7389361;19;20114;-79
2022/05/01 08:11:34;;;;;;;17.95;10.70;;;;;;;;;;7391599;19;20006;-80
2022/05/01 08:13:59;;;;;;;16.45;9.98;;;;;;;;;;7390932;19;20010;-79
2022/05/01 08:16:24;;;;;;;24.25;13.77;;;;;;;;;;7393243;19;20002;-80
2022/05/01 08:21:35;;;;;;;18.40;10.70;;;;;;;;;;7393377;19;20022;-79
2022/05/01 08:24:02;;;;;;;19.13;11.55;;;;;;;;;;7385697;19;20452;-80
2022/05/01 08:26:27;;;;;;;20.00;11.45;;;;;;;;;;7394518;19;20002;-79
2022/05/01 08:28:54;;;;;;;18.58;11.57;;;;;;;;;;7394943;19;19994;-79
2022/05/01 08:31:20;;;;;;;16.30;10.68;;;;;;;;;;7389452;19;20003;-79
2022/05/01 08:33:46;;;;;;;16.95;10.35;;;;;;;;;;7392614;19;20012;-80
2022/05/01 08:36:11;;;;;;;16.90;10.65;;;;;;;;;;7388594;19;20011;-80
2022/05/01 08:38:37;;;;;;;17.88;11.70;;;;;;;;;;7384367;19;20566;-79
2022/05/01 08:41:03;;;;;;;19.20;10.73;;;;;;;;;;7387009;19;19995;-79
2022/05/01 08:43:29;;;;;;;18.77;12.00;;;;;;;;;;7389384;19;20009;-80
2022/05/01 08:46:13;;;;;;;21.55;12.25;;;;;;;;;;7388720;19;20428;-79
2022/05/01 08:49:01;;;;;;;18.38;11.27;;;;;;;;;;7390183;19;20006;-80
2022/05/01 08:51:34;;;;;;;20.00;9.48;;;;;;;;;;7390566;19;20010;-80
2022/05/01 08:54:03;;;;;;;19.77;11.25;;;;;;;;;;7388055;19;20417;-80
2022/05/01 08:56:31;;;;;;;18.98;11.43;;;;;;;;;;7388718;19;20045;-79
2022/05/01 08:58:58;;;;;;;18.75;11.02;;;;;;;;;;7391058;19;20021;-79
2022/05/01 09:01:23;;;;;;;18.20;11.65;;;;;;;;;;7387387;19;20015;-80
2022/05/01 09:03:49;;;;;;;16.55;10.43;;;;;;;;;;7387246;19;20540;-80
2022/05/01 09:06:14;;;;;;;17.27;9.90;;;;;;;;;;7387362;19;20081;-80
2022/05/01 09:08:40;;;;;;;24.83;12.35;;;;;;;;;;7390370;19;20122;-79
2022/05/01 09:13:50;;;;;;;55.45;19.90;;;;;;;;;;7391625;19;20045;-79
2022/05/01 09:16:15;;;;;;;37.92;14.65;;;;;;;;;;7386118;19;20428;-80
2022/05/01 09:18:45;;;;;;;27.65;13.55;;;;;;;;;;7390893;19;20007;-80
2022/05/01 09:21:11;;;;;;;23.65;11.90;;;;;;;;;;7384686;19;20436;-79
2022/05/01 09:23:41;;;;;;;18.20;10.68;;;;;;;;;;7389286;19;20399;-79
2022/05/01 09:26:11;;;;;;;16.73;10.07;;;;;;;;;;7387502;19;20019;-80
2022/05/01 09:28:46;;;;;;;16.92;10.07;;;;;;;;;;7389596;19;20021;-80
2022/05/01 09:31:11;;;;;;;16.92;10.75;;;;;;;;;;7390147;19;20007;-80
2022/05/01 09:33:36;;;;;;;15.88;10.45;;;;;;;;;;7385265;19;20005;-79
2022/05/01 09:36:02;;;;;;;16.65;9.98;;;;;;;;;;7389486;19;20341;-80
2022/05/01 09:38:27;;;;;;;18.13;10.85;;;;;;;;;;7388277;19;19999;-80
2022/05/01 09:40:55;;;;;;;14.10;9.77;;;;;;;;;;7389121;19;20455;-80
2022/05/01 09:43:41;;;;;;;15.25;9.95;;;;;;;;;;7386405;19;19999;-80
2022/05/01 09:46:29;;;;;;;16.33;10.88;;;;;;;;;;7389240;19;20067;-80
2022/05/01 09:49:05;;;;;;;15.40;9.77;;;;;;;;;;7386268;19;20062;-80
2022/05/01 09:51:38;;;;;;;18.08;10.80;;;;;;;;;;7388634;19;20003;-80
2022/05/01 09:54:05;;;;;;;14.07;9.57;;;;;;;;;;7384182;19;20006;-79
2022/05/01 09:56:52;;;;;;;13.68;9.32;;;;;;;;;;7383582;19;20006;-80
2022/05/01 09:59:20;;;;;;;14.45;9.48;;;;;;;;;;7389420;19;19999;-80
2022/05/01 10:02:02;;;;;;;13.68;9.60;;;;;;;;;;7384466;19;20463;-80
2022/05/01 10:04:28;;;;;;;16.73;9.63;;;;;;;;;;7386571;19;20207;-80
2022/05/01 10:06:55;;;;;;;15.98;10.90;;;;;;;;;;7389954;19;19995;-79
2022/05/01 10:09:26;;;;;;;12.38;8.90;;;;;;;;;;7384830;19;20005;-80
2022/05/01 10:11:54;;;;;;;17.25;9.82;;;;;;;;;;7384498;19;20094;-79
2022/05/01 10:14:20;;;;;;;15.02;9.30;;;;;;;;;;7388608;19;19994;-79
2022/05/01 10:16:46;;;;;;;16.90;10.25;;;;;;;;;;7385209;19;20007;-80
2022/05/01 10:19:14;;;;;;;14.20;9.27;;;;;;;;;;7385292;19;20318;-79
2022/05/01 10:21:44;;;;;;;12.73;9.13;;;;;;;;;;7387524;19;20003;-79
2022/05/01 10:24:10;;;;;;;13.02;8.40;;;;;;;;;;7386738;19;20032;-79
2022/05/01 10:26:39;;;;;;;11.80;7.75;;;;;;;;;;7390088;19;19999;-79
2022/05/01 10:32:21;;;;;;;12.50;8.82;;;;;;;;;;7384884;19;20002;-79
2022/05/01 10:32:45;;;;;;;12.82;8.90;;;;;;;;;;7383202;19;20011;-79
2022/05/01 10:35:31;;;;;;;12.15;8.82;;;;;;;;;;7386268;19;20122;-79
2022/05/01 10:37:59;;;;;;;;;;;;;;;;;;7387807;19;20011;-79
2022/05/01 10:40:30;;;;;;;11.45;7.88;;;;;;;;;;7388698;19;19910;-79
2022/05/01 10:42:56;;;;;;;13.07;8.27;;;;;;;;;;7384135;19;19994;-79
2022/05/01 10:45:21;;;;;;;15.25;8.70;;;;;;;;;;7386262;19;20067;-79
2022/05/01 10:47:49;;;;;;;11.63;8.23;;;;;;;;;;7389814;19;19995;-79
2022/05/01 10:50:21;;;;;;;13.10;8.98;;;;;;;;;;7388962;19;20011;-79
2022/05/01 10:53:05;;;;;;;12.85;8.73;;;;;;;;;;7387282;19;20007;-79
2022/05/01 10:55:50;;;;;;;13.35;7.93;;;;;;;;;;7385544;19;20071;-79
2022/05/01 10:58:18;;;;;;;13.45;8.38;;;;;;;;;;7386391;19;19999;-79
2022/05/01 11:00:47;;;;;;;10.60;7.68;;;;;;;;;;7383686;19;19999;-79
2022/05/01 11:03:22;;;;;;;14.57;9.25;;;;;;;;;;7382096;19;20017;-79
2022/05/01 11:05:52;;;;;;;11.30;7.57;;;;;;;;;;7386216;19;20460;-79
2022/05/01 11:08:27;;;;;;;11.32;8.50;;;;;;;;;;7390847;19;20020;-79
2022/05/01 11:10:54;;;;;;;8.85;6.82;;;;;;;;;;7390346;19;20002;-79
2022/05/01 11:13:20;;;;;;;12.10;7.90;;;;;;;;;;7395770;19;20046;-79
2022/05/01 11:15:47;;;;;;;9.40;6.72;;;;;;;;;;7394698;19;20059;-79
2022/05/01 11:18:13;;;;;;;10.02;7.32;;;;;;;;;;7389656;19;20029;-79
2022/05/01 11:20:38;;;;;;;8.10;6.32;;;;;;;;;;7391355;19;20366;-79
2022/05/01 11:23:26;;;;;;;9.95;7.35;;;;;;;;;;7390608;19;20022;-79
2022/05/01 11:26:05;;;;;;;8.30;6.55;;;;;;;;;;7392204;19;20007;-79
2022/05/01 11:28:48;;;;;;;8.98;7.10;;;;;;;;;;7394767;19;19995;-79
2022/05/01 11:31:35;;;;;;;8.10;5.88;;;;;;;;;;7388637;19;20002;-79
2022/05/01 11:34:15;;;;;;;9.13;5.60;;;;;;;;;;7391843;19;20483;-79
2022/05/01 11:36:54;;;;;;;8.23;5.43;;;;;;;;;;7391067;19;20002;-79
2022/05/01 11:39:19;;;;;;;7.20;5.57;;;;;;;;;;7392264;19;20154;-80
2022/05/01 11:41:47;;;;;;;9.50;5.85;;;;;;;;;;7393902;19;20015;-79
2022/05/01 11:44:20;;;;;;;8.68;6.20;;;;;;;;;;7394010;19;20009;-79
2022/05/01 11:46:47;;;;;;;8.23;5.53;;;;;;;;;;7394552;19;20018;-79
2022/05/01 11:49:12;;;;;;;8.25;5.43;;;;;;;;;;7390164;19;20428;-79
2022/05/01 11:51:39;;;;;;;8.60;5.18;;;;;;;;;;7390895;19;20115;-80
2022/05/01 11:54:04;;;;;;;6.22;4.72;;;;;;;;;;7388365;19;20054;-80
2022/05/01 12:04:44;;;;;;;7.57;4.88;;;;;;;;;;7394351;19;20024;-79
2022/05/01 12:07:15;;;;;;;4.50;4.00;;;;;;;;;;7391307;19;20018;-79
2022/05/01 12:09:42;;;;;;;5.60;3.70;;;;;;;;;;7390328;19;20019;-79
2022/05/01 12:12:13;;;;;;;4.95;3.33;;;;;;;;;;7390092;19;20426;-79
2022/05/01 12:14:39;;;;;;;6.38;3.35;;;;;;;;;;7397667;19;20017;-79
2022/05/01 12:17:10;;;;;;;5.13;3.13;;;;;;;;;;7400369;19;20440;-79
2022/05/01 12:19:40;;;;;;;6.03;3.55;;;;;;;;;;7402590;19;20022;-80
2022/05/01 12:22:07;;;;;;;8.68;4.60;;;;;;;;;;7399392;19;20014;-80
2022/05/01 12:24:33;;;;;;;14.50;8.35;;;;;;;;;;7401329;19;20091;-80
2022/05/01 12:26:59;;;;;;;12.02;5.45;;;;;;;;;;7401440;19;20074;-79
2022/05/01 12:29:26;;;;;;;6.72;4.90;;;;;;;;;;7401016;19;20009;-79
2022/05/01 12:32:17;;;;;;;7.18;4.45;;;;;;;;;;7400542;19;20130;-79
2022/05/01 12:34:49;;;;;;;8.23;3.88;;;;;;;;;;7401473;19;20018;-79
2022/05/01 12:37:19;;;;;;;6.95;3.90;;;;;;;;;;7400084;19;20006;-79
2022/05/01 12:39:58;;;;;;;4.75;3.65;;;;;;;;;;7405387;19;20460;-79
2022/05/01 12:45:18;;;;;;;5.00;3.65;;;;;;;;;;7405313;19;20025;-79
2022/05/01 12:47:46;;;;;;;5.00;3.80;;;;;;;;;;7398329;19;20026;-82
2022/05/01 12:50:32;;;;;;;6.63;4.25;;;;;;;;;;7394369;19;20002;-79
2022/05/01 12:53:21;;;;;;;5.72;3.80;;;;;;;;;;7391400;19;20144;-81
2022/05/01 12:55:46;;;;;;;6.25;3.75;;;;;;;;;;7399840;19;20026;-82
2022/05/01 12:58:12;;;;;;;7.78;4.00;;;;;;;;;;7399820;19;20003;-83
2022/05/01 13:00:41;;;;;;;5.78;4.00;;;;;;;;;;7401740;19;20393;-80
2022/05/01 13:03:18;;;;;;;5.18;3.70;;;;;;;;;;7396748;19;20467;-81
2022/05/01 13:05:54;;;;;;;6.53;4.20;;;;;;;;;;7397348;19;20461;-80
2022/05/01 13:08:20;;;;;;;5.07;3.70;;;;;;;;;;7403193;19;20464;-80
2022/05/01 13:11:12;;;;;;;6.72;4.00;;;;;;;;;;7399222;19;20079;-80
2022/05/01 13:13:59;;;;;;;4.63;3.72;;;;;;;;;;7399418;19;20002;-81
2022/05/01 13:16:30;;;;;;;7.25;4.70;;;;;;;;;;7398923;19;20005;-80
2022/05/01 13:19:01;;;;;;;6.22;4.10;;;;;;;;;;7396108;19;20651;-80
2022/05/01 13:21:29;;;;;;;6.82;4.68;;;;;;;;;;7400986;19;20093;-80
2022/05/01 13:23:58;;;;;;;6.07;4.10;;;;;;;;;;7400385;19;20085;-80
2022/05/01 13:26:23;;;;;;;6.18;4.63;;;;;;;;;;7403089;19;20116;-80
2022/05/01 13:28:48;;;;;;;6.20;4.43;;;;;;;;;;7400502;19;20127;-80
2022/05/01 13:31:15;;;;;;;5.80;4.25;;;;;;;;;;7395990;19;19991;-80
2022/05/01 13:33:40;;;;;;;7.38;4.32;;;;;;;;;;7400951;19;19999;-80
2022/05/01 13:36:07;;;;;;;8.15;4.15;;;;;;;;;;7402288;19;20007;-80
2022/05/01 13:38:32;;;;;;;6.55;4.00;;;;;;;;;;7401556;19;19999;-80
2022/05/01 13:46:26;;;;;;;5.70;4.00;;;;;;;;;;7406598;19;20026;-80
2022/05/01 13:48:53;;;;;;;4.68;4.00;;;;;;;;;;7406366;19;20002;-80
2022/05/01 13:51:20;;;;;;;4.20;3.63;;;;;;;;;;7402879;19;20022;-79
2022/05/01 13:53:46;;;;;;;5.55;3.67;;;;;;;;;;7404987;19;20385;-80
2022/05/01 13:56:11;;;;;;;4.22;3.80;;;;;;;;;;7402599;19;19995;-80
2022/05/01 13:58:37;;;;;;;5.68;3.53;;;;;;;;;;7402312;19;19991;-80
2022/05/01 14:01:03;;;;;;;4.32;3.30;;;;;;;;;;7403462;19;20083;-80
2022/05/01 14:03:28;;;;;;;4.88;3.60;;;;;;;;;;7405007;19;20385;-80
2022/05/01 14:05:53;;;;;;;5.47;3.53;;;;;;;;;;7407939;19;20394;-80
2022/05/01 14:08:18;;;;;;;5.22;3.28;;;;;;;;;;7408183;19;20035;-80
2022/05/01 14:10:44;;;;;;;4.28;3.42;;;;;;;;;;7406015;19;20021;-80
2022/05/01 14:13:09;;;;;;;4.07;3.33;;;;;;;;;;7405100;19;20099;-79
2022/05/01 14:15:35;;;;;;;5.88;3.88;;;;;;;;;;7405782;19;20091;-80
2022/05/01 14:18:02;;;;;;;5.85;4.20;;;;;;;;;;7409464;19;20078;-80
2022/05/01 14:20:28;;;;;;;18.30;12.18;;;;;;;;;;7408563;19;20029;-81
2022/05/01 14:22:56;;;;;;;9.98;7.47;;;;;;;;;;7412265;19;20003;-81
2022/05/01 14:25:21;;;;;;;5.13;4.20;;;;;;;;;;7413078;19;20396;-81
2022/05/01 14:27:47;;;;;;;27.75;15.65;;;;;;;;;;7423806;19;20009;-80
2022/05/01 14:30:13;;;;;;;45.85;26.63;;;;;;;;;;7414992;19;19995;-80
2022/05/01 14:32:51;;;;;;;35.50;18.63;;;;;;;;;;7413056;19;20020;-80
2022/05/01 14:35:19;;;;;;;22.77;13.30;;;;;;;;;;7414186;19;20038;-81
2022/05/01 14:37:55;;;;;;;19.58;11.55;;;;;;;;;;7395218;19;20002;-82
2022/05/01 14:40:23;;;;;;;7.22;5.05;;;;;;;;;;7386231;19;20066;-81
2022/05/01 14:42:49;;;;;;;7.38;5.03;;;;;;;;;;7397125;19;20003;-81
2022/05/01 14:45:16;;;;;;;5.47;3.95;;;;;;;;;;7392199;19;20002;-82
2022/05/01 14:48:03;;;;;;;18.20;10.40;;;;;;;;;;7393165;19;19994;-81
2022/05/01 14:50:29;;;;;;;5.63;4.40;;;;;;;;;;7395997;19;20010;-81
2022/05/01 14:52:55;;;;;;;4.03;3.00;;;;;;;;;;7397404;19;20014;-83
2022/05/01 14:55:23;;;;;;;7.75;4.20;;;;;;;;;;7392734;19;20073;-81
2022/05/01 14:57:52;;;;;;;5.38;3.28;;;;;;;;;;7394039;19;20020;-81
2022/05/01 15:08:38;;;;;;;4.50;3.10;;;;;;;;;;7397787;19;20035;-82
2022/05/01 15:11:03;;;;;;;4.00;3.17;;;;;;;;;;7394359;19;19999;-82
2022/05/01 15:13:29;;;;;;;7.35;3.45;;;;;;;;;;7392968;19;20314;-82
2022/05/01 15:16:02;;;;;;;4.65;3.10;;;;;;;;;;7391379;19;20035;-82
2022/05/01 15:18:42;;;;;;;3.60;2.92;;;;;;;;;;7390750;19;20030;-82
2022/05/01 15:24:22;;;;;;;4.75;3.33;;;;;;;;;;7395599;19;20029;-81
2022/05/01 15:26:55;;;;;;;4.25;3.25;;;;;;;;;;7397577;19;20491;-82